Time;durP1;ratioP1;P1;durP2;ratioP2;P2;SDS_P1;SDS_P2;PMS_P1;PMS_P2;Temp;Humidity;BMP_temperature;BMP_pressure;BME280_temperature;BME280_humidity;BME280_pressure;Samples;Min_cycle;Max_cycle;Signal;HPM_P1;HPM_P2
2023/01/27 00:01:15;;;;;;;14.40;9.70;;;;;;;4.83;65.88;102074.64;106858;1266;25322;-50
2023/01/27 00:03:42;;;;;;;13.70;9.10;;;;;;;4.85;65.78;102080.20;106734;1266;25488;-50
2023/01/27 00:06:10;;;;;;;15.20;9.90;;;;;;;4.87;65.89;102085.58;106040;1266;1003728;-51
2023/01/27 00:08:38;;;;;;;15.60;10.60;;;;;;;4.89;65.81;102090.94;106803;1269;22583;-50
2023/01/27 00:13:50;;;;;;;15.70;10.00;;;;;;;4.92;65.96;102082.41;106742;1271;25555;-50
2023/01/27 00:16:17;;;;;;;17.10;10.40;;;;;;;4.93;65.83;102080.20;106884;1268;25393;-50
2023/01/27 00:18:44;;;;;;;14.00;9.60;;;;;;;4.92;65.88;102078.30;106233;1269;1002988;-50
2023/01/27 00:26:43;;;;;;;14.70;11.20;;;;;;;4.94;65.91;102070.45;107083;1270;25337;-50
2023/01/27 00:29:11;;;;;;;15.80;10.10;;;;;;;4.96;65.90;102068.08;107147;1269;25597;-50
2023/01/27 00:34:24;;;;;;;19.10;10.90;;;;;;;4.99;65.88;102051.95;107145;1269;23864;-49
2023/01/27 00:36:51;;;;;;;15.60;10.80;;;;;;;4.99;66.00;102060.91;107029;1269;25405;-50
2023/01/27 00:39:19;;;;;;;16.20;12.20;;;;;;;5.00;66.03;102064.71;107085;1269;25406;-50
2023/01/27 00:41:47;;;;;;;17.80;10.80;;;;;;;5.00;65.96;102059.89;107117;1272;25374;-49
2023/01/27 00:44:14;;;;;;;13.10;10.40;;;;;;;4.98;65.88;102051.77;106776;1268;24250;-49
2023/01/27 00:46:46;;;;;;;15.60;10.80;;;;;;;4.95;65.78;102054.98;106720;1267;25466;-50
2023/01/27 00:49:13;;;;;;;21.00;11.90;;;;;;;4.96;65.76;102053.62;107146;1267;25326;-50
2023/01/27 00:51:40;;;;;;;16.00;10.80;;;;;;;4.94;65.72;102052.23;107073;1266;25409;-50
2023/01/27 00:54:08;;;;;;;19.00;11.80;;;;;;;4.94;65.75;102053.25;107065;1267;25352;-52
2023/01/27 00:56:35;;;;;;;16.30;11.80;;;;;;;4.93;65.92;102058.55;107110;1267;22994;-50
2023/01/27 00:59:02;;;;;;;20.00;11.90;;;;;;;4.93;65.77;102050.28;107118;1268;25396;-49
2023/01/27 07:20:13;;;;;;;28.60;18.50;;;;;;;4.28;78.84;101821.54;105206;1283;24505;-59
2023/01/27 07:22:41;;;;;;;27.40;19.10;;;;;;;4.39;78.39;101816.77;106267;1281;25357;-59
2023/01/27 07:25:08;;;;;;;26.30;17.80;;;;;;;4.46;77.77;101814.34;106151;1282;24385;-59
2023/01/27 07:27:35;;;;;;;29.60;16.60;;;;;;;4.54;77.38;101810.73;105908;1276;138048;-60
2023/01/27 07:30:03;;;;;;;19.90;15.10;;;;;;;4.61;76.89;101804.34;106684;1278;25372;-59
2023/01/27 07:32:33;;;;;;;23.00;14.60;;;;;;;4.69;76.56;101799.84;106682;1275;25471;-59
2023/01/27 07:35:00;;;;;;;16.90;13.20;;;;;;;4.76;75.74;101803.08;106623;1276;24246;-58
2023/01/27 07:37:27;;;;;;;16.10;12.00;;;;;;;4.81;75.35;101801.77;106703;1275;25328;-59
2023/01/27 07:39:54;;;;;;;22.50;14.80;;;;;;;4.84;74.91;101802.52;106264;1276;25517;-60
2023/01/27 07:42:21;;;;;;;17.20;13.00;;;;;;;4.86;74.68;101797.41;106701;1276;24008;-59
2023/01/27 07:44:50;;;;;;;18.50;13.50;;;;;;;4.89;74.38;101802.27;106133;1277;25496;-59
2023/01/27 07:47:17;;;;;;;20.40;13.10;;;;;;;4.92;74.13;101804.39;106733;1275;25424;-59
2023/01/27 07:49:44;;;;;;;20.80;14.30;;;;;;;4.95;73.99;101808.23;106315;1272;1003099;-59
2023/01/27 07:52:11;;;;;;;19.90;15.00;;;;;;;4.99;73.79;101808.64;106854;1259;22640;-59
2023/01/27 07:54:38;;;;;;;19.40;14.40;;;;;;;5.00;73.42;101812.45;106844;1267;25411;-59
2023/01/27 07:57:05;;;;;;;21.20;16.50;;;;;;;5.01;73.37;101810.05;107101;1267;25583;-59
2023/01/27 07:59:32;;;;;;;25.90;16.90;;;;;;;5.00;73.26;101812.79;106825;1274;22642;-59
2023/01/27 08:01:59;;;;;;;24.30;16.70;;;;;;;4.98;73.13;101817.20;106573;1267;25430;-58
2023/01/27 08:04:26;;;;;;;25.50;18.10;;;;;;;4.98;73.08;101824.60;107112;1266;25359;-59
2023/01/27 08:06:54;;;;;;;23.60;16.60;;;;;;;4.98;73.02;101836.13;107115;1269;25388;-59
2023/01/27 08:09:22;;;;;;;24.50;16.00;;;;;;;5.01;72.86;101839.45;107049;1267;25538;-59
2023/01/27 08:11:49;;;;;;;29.10;15.80;;;;;;;5.03;72.68;101838.46;107053;1273;25369;-59
2023/01/27 08:14:16;;;;;;;25.20;15.90;;;;;;;5.03;72.50;101837.25;107044;1266;25487;-59
2023/01/27 08:16:43;;;;;;;19.70;14.20;;;;;;;5.04;72.41;101841.90;106872;1274;25388;-59
2023/01/27 08:19:11;;;;;;;21.80;15.50;;;;;;;5.04;72.24;101838.81;107156;1266;25366;-59
2023/01/27 08:21:38;;;;;;;22.20;14.50;;;;;;;5.04;72.24;101832.63;106887;1271;25365;-59
2023/01/27 08:24:06;;;;;;;18.40;13.70;;;;;;;5.05;71.95;101826.46;107031;1266;25393;-59
2023/01/27 08:26:33;;;;;;;19.50;13.90;;;;;;;5.06;71.95;101825.42;107129;1267;25334;-59
2023/01/27 08:29:00;;;;;;;19.10;12.90;;;;;;;5.07;71.80;101819.61;106264;1270;1003419;-59
2023/01/27 08:31:28;;;;;;;20.70;13.60;;;;;;;5.06;71.83;101813.23;106898;1267;25340;-59
2023/01/27 08:33:55;;;;;;;22.30;13.90;;;;;;;5.04;71.78;101804.08;107147;1270;25487;-58
2023/01/27 08:36:22;;;;;;;23.30;13.70;;;;;;;5.03;71.74;101799.27;106790;1275;25362;-59
2023/01/27 08:38:49;;;;;;;18.30;13.70;;;;;;;5.02;71.69;101795.44;106926;1267;26522;-59
2023/01/27 08:41:19;;;;;;;22.50;14.20;;;;;;;5.03;71.77;101789.96;107073;1267;25372;-59
2023/01/27 08:43:46;;;;;;;24.70;14.70;;;;;;;5.04;71.94;101791.70;106360;1267;1003327;-59
2023/01/27 08:46:14;;;;;;;19.50;12.90;;;;;;;5.07;71.94;101788.65;107097;1267;26663;-59
2023/01/27 08:48:42;;;;;;;21.50;14.10;;;;;;;5.08;71.85;101786.78;107104;1266;25236;-59
2023/01/27 08:51:11;;;;;;;23.20;13.40;;;;;;;5.09;71.66;101782.16;107101;1267;22549;-59
2023/01/27 08:53:37;;;;;;;19.60;12.60;;;;;;;5.09;71.73;101778.20;107048;1266;25554;-59
2023/01/27 08:56:07;;;;;;;21.50;13.80;;;;;;;5.10;71.83;101766.69;106395;1270;1003768;-58
2023/01/27 08:58:34;;;;;;;18.90;13.00;;;;;;;5.12;71.79;101757.44;107132;1266;22517;-59
2023/01/27 09:01:02;;;;;;;19.30;12.50;;;;;;;5.13;71.95;101752.30;106817;1267;24306;-59
2023/01/27 09:03:32;;;;;;;19.60;13.00;;;;;;;5.14;71.80;101749.91;106097;1267;1003263;-59
2023/01/27 09:06:00;;;;;;;20.80;12.90;;;;;;;5.16;71.94;101744.44;107149;1267;25427;-59
2023/01/27 09:08:27;;;;;;;18.10;12.90;;;;;;;5.18;71.98;101743.44;106368;1267;1002982;-59
2023/01/27 09:10:55;;;;;;;17.40;12.10;;;;;;;5.19;71.95;101746.72;106841;1270;25440;-59
2023/01/27 09:13:22;;;;;;;17.40;12.40;;;;;;;5.19;71.77;101747.24;107138;1266;22637;-59
2023/01/27 09:15:52;;;;;;;19.60;12.40;;;;;;;5.19;71.55;101739.33;106364;1266;1003318;-59
2023/01/27 09:18:20;;;;;;;22.40;13.10;;;;;;;5.18;71.76;101737.77;106451;1267;1003537;-59
2023/01/27 09:20:47;;;;;;;22.20;12.90;;;;;;;5.16;71.70;101729.30;107066;1267;25339;-59
2023/01/27 09:23:14;;;;;;;19.50;13.20;;;;;;;5.15;71.99;101727.74;107215;1267;25328;-59
2023/01/27 09:25:41;;;;;;;16.40;11.30;;;;;;;5.17;71.98;101726.21;106471;1267;23379;-59
2023/01/27 09:28:15;;;;;;;16.20;11.40;;;;;;;5.20;72.14;101722.14;106905;1273;25369;-59
2023/01/27 09:30:44;;;;;;;15.30;11.70;;;;;;;5.23;72.01;101716.52;106850;1274;22639;-58
2023/01/27 09:33:13;;;;;;;17.50;12.00;;;;;;;5.24;71.78;101707.57;106930;1266;22520;-59
2023/01/27 09:35:47;;;;;;;17.00;11.70;;;;;;;5.24;71.67;101702.58;106510;1266;23154;-59
2023/01/27 09:38:16;;;;;;;18.10;12.50;;;;;;;5.24;71.75;101696.92;106756;1275;22515;-60
2023/01/27 09:41:13;;;;;;;14.80;10.90;;;;;;;5.25;71.65;101699.51;106816;1267;22547;-59
2023/01/27 09:44:14;;;;;;;16.40;10.90;;;;;;;5.28;71.71;101711.77;106920;1269;25522;-59
2023/01/27 09:47:15;;;;;;;15.00;10.40;;;;;;;5.32;71.69;101719.05;106527;1274;25809;-59
2023/01/27 09:50:02;;;;;;;14.80;11.10;;;;;;;5.34;71.54;101720.11;106819;1266;25516;-59
2023/01/27 09:53:14;;;;;;;14.80;10.20;;;;;;;5.36;71.32;101719.97;106476;1275;25455;-58
2023/01/27 09:56:07;;;;;;;13.80;9.30;;;;;;;5.37;71.13;101720.02;106124;1281;25514;-58
2023/01/27 09:59:03;;;;;;;11.90;8.80;;;;;;;5.40;71.15;101725.71;106108;1281;25351;-59
2023/01/27 10:01:45;;;;;;;13.60;8.50;;;;;;;5.43;71.10;101731.96;106120;1280;22541;-58
2023/01/27 10:04:29;;;;;;;13.50;9.00;;;;;;;5.45;70.98;101737.31;106128;1281;25502;-58
2023/01/27 10:07:02;;;;;;;12.40;9.00;;;;;;;5.44;70.71;101739.72;105317;1282;1003186;-58
2023/01/27 16:11:27;;;;;;;45.70;26.20;;;;;;;4.09;84.31;101533.19;105019;1301;25651;-59
2023/01/27 16:14:13;;;;;;;43.40;25.00;;;;;;;4.18;83.51;101542.95;106288;1281;25358;-58
2023/01/27 16:16:53;;;;;;;38.10;22.50;;;;;;;4.27;83.02;101530.05;106282;1278;25363;-59
2023/01/27 16:19:22;;;;;;;39.80;23.70;;;;;;;4.36;82.43;101529.85;106090;1275;234552;-60
2023/01/27 16:22:17;;;;;;;39.00;22.20;;;;;;;4.41;82.18;101516.02;106388;1275;24295;-59
2023/01/27 16:24:54;;;;;;;42.90;22.50;;;;;;;4.47;81.59;101518.52;105455;1282;1003276;-58
2023/01/27 16:27:35;;;;;;;43.20;24.00;;;;;;;4.51;81.28;101520.30;105357;1282;1003081;-59
2023/01/27 16:30:06;;;;;;;41.70;23.00;;;;;;;4.56;80.96;101512.80;106041;1282;24368;-58
2023/01/27 16:32:37;;;;;;;42.20;22.20;;;;;;;4.57;80.44;101503.90;106016;1285;25382;-58
2023/01/27 16:35:16;;;;;;;31.80;20.80;;;;;;;4.59;80.40;101500.14;106037;1285;22539;-59
2023/01/27 16:38:04;;;;;;;31.70;19.60;;;;;;;4.61;79.98;101497.95;105144;1284;1003714;-58
2023/01/27 16:40:32;;;;;;;31.40;18.80;;;;;;;4.64;79.78;101510.88;106051;1284;26319;-59
2023/01/27 16:43:12;;;;;;;34.70;20.50;;;;;;;4.65;79.60;101506.08;106135;1282;25489;-59
2023/01/27 16:45:44;;;;;;;32.70;20.20;;;;;;;4.66;79.30;101516.58;106048;1282;22708;-58
2023/01/27 16:48:40;;;;;;;36.20;20.10;;;;;;;4.68;79.24;101516.26;105096;1286;1003789;-59
2023/01/27 16:51:22;;;;;;;35.60;20.10;;;;;;;4.72;79.16;101517.52;106186;1282;25497;-58
2023/01/27 16:53:53;;;;;;;31.50;18.80;;;;;;;4.75;79.03;101516.17;105961;1285;22538;-58
2023/01/27 16:56:29;;;;;;;27.30;17.70;;;;;;;4.77;78.80;101519.81;105912;1285;22529;-58
2023/01/27 16:59:00;;;;;;;36.40;19.30;;;;;;;4.78;78.84;101518.45;106103;1282;25313;-58
2023/01/27 17:01:40;;;;;;;33.20;19.10;;;;;;;4.61;79.42;101515.13;106107;1275;25503;-58
2023/01/27 17:04:13;;;;;;;27.60;18.50;;;;;;;4.72;79.15;101509.27;106425;1276;22648;-58
2023/01/27 17:06:48;;;;;;;32.90;18.60;;;;;;;4.84;78.57;101502.39;106486;1278;25447;-58
2023/01/27 17:09:23;;;;;;;32.90;18.50;;;;;;;4.87;78.43;101494.52;106457;1275;22656;-58
2023/01/27 17:11:52;;;;;;;29.80;18.10;;;;;;;4.88;78.35;101490.75;105694;1276;1003666;-58
2023/01/27 17:14:27;;;;;;;29.80;18.00;;;;;;;4.89;78.09;101490.23;105813;1275;1003303;-58
2023/01/27 17:17:02;;;;;;;;;;;;;;;4.89;78.12;101492.65;105841;1275;1002843;-59
2023/01/27 17:19:31;;;;;;;28.90;17.50;;;;;;;4.89;78.09;101489.90;106433;1275;22677;-58
2023/01/27 17:21:59;;;;;;;28.80;17.40;;;;;;;4.89;77.98;101486.64;106371;1280;25504;-58
2023/01/27 17:24:31;;;;;;;30.80;16.90;;;;;;;4.90;78.08;101486.80;106410;1275;25333;-58
2023/01/27 17:27:04;;;;;;;28.70;17.80;;;;;;;4.91;77.90;101482.52;106387;1276;22556;-58
2023/01/27 17:29:39;;;;;;;30.10;18.20;;;;;;;4.92;77.81;101484.77;106440;1276;25498;-58
2023/01/27 17:32:46;;;;;;;27.50;17.50;;;;;;;4.93;77.61;101485.30;106367;1278;22776;-58
2023/01/27 17:35:19;;;;;;;31.30;17.40;;;;;;;4.92;77.51;101480.83;105938;1283;25458;-58
2023/01/27 17:37:46;;;;;;;30.30;17.10;;;;;;;4.90;77.38;101482.17;105673;1287;25432;-58
2023/01/27 17:40:19;;;;;;;33.00;17.60;;;;;;;4.89;77.33;101480.63;106157;1280;25497;-58
2023/01/27 17:42:46;;;;;;;31.60;18.70;;;;;;;4.87;77.25;101479.39;105932;1285;22535;-58
2023/01/27 17:45:30;;;;;;;29.40;18.50;;;;;;;4.86;77.14;101488.13;106093;1280;25454;-58
2023/01/27 17:47:58;;;;;;;36.90;18.10;;;;;;;4.86;77.12;101488.98;106126;1279;22526;-58
2023/01/27 17:50:36;;;;;;;31.70;18.30;;;;;;;4.86;77.25;101502.41;105339;1280;1002893;-58
2023/01/27 17:53:06;;;;;;;29.10;18.20;;;;;;;4.86;77.07;101501.54;106009;1281;22576;-58
2023/01/27 17:55:33;;;;;;;31.50;18.20;;;;;;;4.86;77.15;101497.25;106036;1282;25338;-59
2023/01/27 17:58:05;;;;;;;30.30;17.80;;;;;;;4.87;77.11;101488.48;106212;1281;25355;-58
2023/01/27 18:00:36;;;;;;;30.20;18.30;;;;;;;4.86;76.92;101477.83;105444;1281;1003045;-58
2023/01/27 18:03:33;;;;;;;34.80;18.60;;;;;;;4.84;76.89;101470.07;106184;1284;22530;-58
2023/01/27 18:06:01;;;;;;;31.00;17.50;;;;;;;4.83;76.97;101470.56;105017;1279;1002897;-60
2023/01/27 18:08:32;;;;;;;32.20;18.40;;;;;;;4.84;77.05;101473.85;106203;1284;23007;-58
2023/01/27 18:11:24;;;;;;;28.10;16.70;;;;;;;4.85;77.03;101471.63;106380;1279;22534;-58
2023/01/27 18:13:52;;;;;;;31.30;17.60;;;;;;;4.86;77.07;101463.55;106292;1279;24374;-58
2023/01/27 18:16:22;;;;;;;29.40;17.60;;;;;;;4.86;77.02;101453.23;105585;1281;1003066;-58
2023/01/27 18:19:05;;;;;;;32.40;18.00;;;;;;;4.86;77.03;101439.83;106280;1279;25501;-58
2023/01/27 18:21:34;;;;;;;25.90;18.20;;;;;;;4.86;77.04;101438.11;106325;1282;25507;-58
2023/01/27 18:24:09;;;;;;;31.00;17.80;;;;;;;4.85;77.02;101437.09;106304;1282;25351;-58
2023/01/27 18:26:36;;;;;;;30.40;18.10;;;;;;;4.85;76.87;101433.80;106317;1279;22552;-58
2023/01/27 18:29:12;;;;;;;29.20;19.20;;;;;;;4.85;76.92;101428.14;105248;1279;1003022;-58
2023/01/27 18:31:48;;;;;;;30.10;17.60;;;;;;;4.85;77.09;101420.05;106359;1283;24406;-58
2023/01/27 18:34:31;;;;;;;28.90;17.70;;;;;;;4.84;77.13;101422.96;106373;1277;25516;-58
2023/01/27 18:37:01;;;;;;;27.40;17.30;;;;;;;4.84;77.07;101422.79;106011;1284;25550;-58
2023/01/27 18:39:31;;;;;;;29.40;17.40;;;;;;;4.83;77.05;101431.04;106353;1276;23875;-58
2023/01/27 18:41:59;;;;;;;28.10;17.50;;;;;;;4.84;77.20;101432.92;105612;1279;1003380;-58
2023/01/27 18:44:33;;;;;;;32.10;18.00;;;;;;;4.84;77.07;101428.64;106646;1271;22526;-59
2023/01/27 18:47:16;;;;;;;30.40;17.70;;;;;;;4.82;77.03;101423.11;106761;1271;25798;-58
2023/01/27 18:50:17;;;;;;;31.70;19.40;;;;;;;4.82;77.04;101415.38;106840;1271;25408;-58
2023/01/27 18:52:44;;;;;;;30.80;19.20;;;;;;;4.80;77.03;101408.48;105743;1276;1003386;-58
2023/01/27 18:55:18;;;;;;;29.00;19.10;;;;;;;4.79;77.18;101405.55;106003;1272;1003626;-58
2023/01/27 18:57:50;;;;;;;35.10;20.00;;;;;;;4.80;77.22;101404.69;106721;1272;25353;-58
2023/01/27 19:00:20;;;;;;;35.20;20.40;;;;;;;4.81;77.27;101405.39;106519;1271;25362;-59
2023/01/27 19:02:48;;;;;;;36.20;20.20;;;;;;;4.80;77.17;101404.52;106452;1279;23871;-59
